Create Custom Reports and Graphics: Custom Report

Last 6 Observations

Last 30 Minutes (5-Min)

5 Minute Data | America/Los_Angeles
as of 9/3/26 5:16 PM PDT
Date & Time Wind Spd (mph) Wind Dir (°) Wind Gust (mph) Wind Spd Sonic (mph) Wind Dir Sonic (°) Wind Gust Sonic (mph)
9/3/26 - 1715 37.3 SSE | 156 50.7 37.4 SW | 223 51.0
9/3/26 - 1710 37.4 NE | 50 48.1 37.0 SW | 221 45.9
9/3/26 - 1705 37.3 ENE | 71 47.4 36.7 SW | 221 46.1
9/3/26 - 1700 36.7 WNW | 286 48.1 36.2 SW | 224 47.4
9/3/26 - 1655 36.0 SSW | 198 45.3 35.0 SW | 223 47.4
9/3/26 - 1650 38.6 ESE | 120 47.9 39.2 SW | 221 49.0
Max 38.6 - 50.7 39.2 - 51.0
Avg 37.2 - 47.9 36.9 - 47.8
Min 36.0 - 45.3 35.0 - 45.9

Top Stn/Summit - 11,053ft

Current Conditions

9/3/26 5:15 PM (-07:00)
Updated Every 15 Minutes
Wind Spd 37.3 mph   8.1
Wind Spd Sonic 37.0 mph   7.7
Wind Dir E | 100 °
Wind Dir Sonic SW | 222 °
Wind Gust 50.7 mph   11.9
Wind Gust Sonic 51.0 mph   10.5
Temp 39.7 °F   0.9
WindChill 26.0 °F   0.1
RH 71 %   12
Dew Pt 30.9 °F   5.4
Wet Bulb 36.1 °F   2.4
Daily Max Wind 56.9 mph   0.8
Time of Max Wind 0249
Max Wind Dir NNE | 16 °
Daily Max Gust Sonic 57.5 mph   1.1
Time Wind Max Sonic 0233
Dir Max Gust Sonic SW | 216 Degrees
Daily Max Temp 43.1 °F   2.8
Daily Min Temp 29.6 °F   3.8
Yest MaxT 40.3 °F
Yest MinT 25.8 °F
Yest MaxGst 57.7 mph

Last 24 Hours

Top Stn/Summit - 11,053ft

15 Minute Data | America/Los_Angeles
as of 9/3/26 5:16 PM PDT
Date & Time Temp (°F) WindChill (°F) RH (%) Dew Pt (°F) Wet Bulb (°F) Wind Spd (mph) Wind Spd Sonic (mph) Wind Dir (°) Wind Dir Sonic (°) Wind Gust (mph) Wind Gust Sonic (mph) Daily Min Temp (°F) Daily Max Temp (°F) Daily Max Wind (mph) Daily Max Gust Sonic (mph)
9/3/26 - 1715 39.7 26.0 71 30.9 36.1 37.3 37.0 E | 100 SW | 222 50.7 51.0 29.6 43.1 56.9 57.5
9/3/26 - 1700 40.0 26.6 68 30.4 36.1 37.1 36.8 S | 181 SW | 223 48.1 49.0 29.6 43.1 56.9 57.5
9/3/26 - 1645 40.1 26.6 68 30.3 36.2 37.0 37.7 SW | 216 SW | 223 50.7 49.4 29.6 43.1 56.9 57.5
9/3/26 - 1630 40.8 27.4 64 29.7 36.4 38.8 39.8 SSW | 194 SW | 219 52.8 49.9 29.6 43.1 56.9 57.5
9/3/26 - 1615 41.1 28.2 62 29.2 36.3 34.5 33.7 W | 267 SW | 227 49.0 49.4 29.6 43.1 56.9 57.5
9/3/26 - 1600 41.5 28.6 60 28.6 36.4 37.1 37.5 S | 189 SW | 222 48.9 48.5 29.6 43.1 56.9 57.5
9/3/26 - 1545 42.0 29.4 60 29.0 36.8 35.8 36.3 SW | 226 SW | 223 49.0 47.2 29.6 43.1 56.9 57.5
9/3/26 - 1530 42.6 30.4 59 29.2 37.2 34.0 33.9 SW | 222 SW | 226 47.3 46.8 29.6 43.1 56.9 57.5
9/3/26 - 1515 42.5 30.4 57 28.4 36.9 34.6 33.9 SW | 225 SW | 224 46.3 45.9 29.6 43.1 56.9 57.5
9/3/26 - 1500 42.6 30.6 55 27.6 36.6 32.4 32.1 SW | 224 SW | 225 46.4 46.3 29.6 43.1 56.9 57.5
9/3/26 - 1445 42.8 31.2 54 27.5 36.7 28.7 28.0 SW | 225 SW | 229 45.2 44.3 29.6 43.1 56.9 57.5
9/3/26 - 1430 42.6 30.8 54 27.3 36.6 30.4 30.5 SW | 228 SW | 228 45.3 44.5 29.6 43.1 56.9 57.5
9/3/26 - 1415 42.5 30.5 54 26.9 36.4 32.2 31.6 SW | 228 SW | 229 47.8 45.9 29.6 43.1 56.9 57.5
9/3/26 - 1400 42.5 30.5 53 26.7 36.3 30.9 30.6 SW | 226 SW | 228 47.7 47.2 29.6 43.1 56.9 57.5
9/3/26 - 1345 42.7 30.8 51 25.6 36.1 32.0 31.9 SW | 222 SW | 223 46.2 46.8 29.6 43.1 56.9 57.5
9/3/26 - 1330 42.6 30.3 51 25.8 36.1 33.4 34.0 SW | 222 SW | 220 50.0 49.7 29.6 42.9 56.9 57.5
9/3/26 - 1315 42.4 30.3 52 25.8 35.9 33.8 35.4 SW | 224 SW | 220 46.0 45.9 29.6 42.9 56.9 57.5
9/3/26 - 1300 42.4 30.4 51 25.8 36.0 33.6 34.2 SW | 222 SW | 221 46.2 46.1 29.6 42.9 56.9 57.5
9/3/26 - 1245 42.1 29.9 52 25.8 35.8 34.0 35.0 SW | 222 SW | 223 45.8 50.3 29.6 42.7 56.9 57.5
9/3/26 - 1230 42.2 30.0 52 25.7 35.8 33.9 34.4 SW | 224 SW | 223 45.7 46.3 29.6 42.7 56.9 57.5
9/3/26 - 1215 41.4 28.9 52 25.0 35.2 32.0 31.8 SW | 225 SW | 224 47.5 44.5 29.6 42.1 56.9 57.5
9/3/26 - 1200 40.5 27.7 52 24.1 34.4 34.1 34.8 SW | 225 SW | 222 45.6 44.7 29.6 41.2 56.9 57.5
9/3/26 - 1145 40.1 27.2 52 24.1 34.1 34.9 35.8 SW | 225 SW | 223 43.9 44.5 29.6 40.4 56.9 57.5
9/3/26 - 1130 39.7 26.4 53 24.0 33.8 35.0 36.6 SW | 227 SW | 222 45.8 46.1 29.6 40.2 56.9 57.5
9/3/26 - 1115 39.3 26.0 50 22.2 33.1 35.0 36.4 SW | 229 SW | 222 44.5 45.4 29.6 39.7 56.9 57.5
9/3/26 - 1100 38.7 25.1 48 20.6 32.4 35.6 36.8 SW | 226 SW | 224 45.3 45.0 29.6 39.1 56.9 57.5
9/3/26 - 1045 38.7 24.8 47 20.3 32.3 37.4 38.6 SW | 226 SW | 222 48.0 50.6 29.6 39.0 56.9 57.5
9/3/26 - 1030 38.2 23.9 47 19.8 31.8 38.4 39.0 SW | 225 SW | 221 48.1 48.3 29.6 38.8 56.9 57.5
9/3/26 - 1015 37.5 23.2 48 19.7 31.4 36.2 37.7 SW | 227 SW | 221 47.0 45.0 29.6 37.7 56.9 57.5
9/3/26 - 1000 36.8 22.6 50 19.6 30.9 34.4 35.6 SW | 227 SW | 221 44.2 45.4 29.6 37.1 56.9 57.5
9/3/26 - 0945 36.0 21.6 48 18.4 30.1 33.5 35.1 SW | 227 SW | 220 43.5 42.3 29.6 36.6 56.9 57.5
9/3/26 - 0930 35.4 21.1 50 18.6 29.8 31.6 33.2 SW | 227 SW | 219 40.3 39.2 29.6 35.7 56.9 57.5
9/3/26 - 0915 34.9 20.5 53 19.6 29.7 31.6 32.6 SW | 227 SW | 220 39.8 38.7 29.6 35.2 56.9 57.5
9/3/26 - 0900 34.1 19.7 58 20.8 29.6 29.6 30.6 SW | 229 SW | 222 38.6 38.0 29.6 34.6 56.9 57.5
9/3/26 - 0845 33.6 19.0 58 20.5 29.2 30.6 31.4 SW | 230 SW | 223 38.7 37.6 29.6 34.2 56.9 57.5
9/3/26 - 0830 33.0 18.1 61 21.0 28.9 30.1 31.9 SW | 230 SW | 222 40.0 38.7 29.6 33.3 56.9 57.5
9/3/26 - 0815 32.4 17.5 64 21.4 28.6 29.4 30.9 SW | 230 SW | 222 37.0 36.7 29.6 33.2 56.9 57.5
9/3/26 - 0800 32.0 17.0 65 21.8 28.5 30.1 32.3 SW | 230 SW | 221 37.4 37.1 29.6 32.5 56.9 57.5
9/3/26 - 0745 31.2 15.5 71 22.8 28.3 31.4 33.3 SW | 229 SW | 221 39.2 39.4 29.6 32.5 56.9 57.5
9/3/26 - 0730 30.9 14.6 74 23.5 28.3 33.8 36.2 SW | 229 SW | 220 42.3 40.5 29.6 32.1 56.9 57.5
9/3/26 - 0715 30.6 14.0 73 23.1 28.0 34.6 37.4 SW | 228 SW | 220 44.3 42.0 29.6 32.1 56.9 57.5
9/3/26 - 0700 30.0 12.8 76 23.3 27.6 36.5 39.4 SW | 228 SW | 220 44.9 44.1 29.6 32.1 56.9 57.5
9/3/26 - 0645 29.9 12.6 74 22.6 27.3 37.0 39.6 SW | 228 SW | 220 45.8 45.2 29.6 32.1 56.9 57.5
9/3/26 - 0630 29.9 12.7 73 22.2 27.2 36.7 39.4 SW | 228 SW | 220 45.2 45.4 29.6 32.1 56.9 57.5
9/3/26 - 0615 30.6 13.7 65 20.3 27.2 36.5 38.8 SW | 228 SW | 220 45.6 44.5 29.6 32.1 56.9 57.5
9/3/26 - 0600 30.5 13.8 65 20.2 27.1 35.3 37.8 SW | 228 SW | 220 43.5 43.0 29.6 32.1 56.9 57.5
9/3/26 - 0545 29.7 12.4 74 22.4 27.2 36.7 39.6 SW | 228 SW | 220 46.2 45.2 29.6 32.1 56.9 57.5
9/3/26 - 0530 29.7 12.4 72 21.9 27.1 38.2 41.5 SW | 226 SW | 217 45.4 45.0 29.6 32.1 56.9 57.5
9/3/26 - 0515 29.7 12.1 71 21.4 26.9 39.1 42.9 SW | 227 SW | 217 47.4 47.6 29.6 32.1 56.9 57.5
9/3/26 - 0500 29.9 12.2 69 20.9 26.9 39.6 44.4 SW | 226 SW | 216 48.3 47.6 29.8 32.1 56.9 57.5
9/3/26 - 0445 30.2 12.5 67 20.6 27.0 40.6 45.3 SW | 226 SW | 216 48.9 48.8 30.0 32.1 56.9 57.5
9/3/26 - 0430 30.4 12.7 65 19.9 27.0 42.3 47.1 N | 359 SW | 216 50.6 50.1 30.3 32.1 56.9 57.5
9/3/26 - 0415 30.7 13.2 60 18.7 26.8 42.0 47.2 N | 357 SW | 216 49.8 50.8 30.5 32.1 56.9 57.5
9/3/26 - 0400 31.0 13.3 58 18.0 26.8 43.4 49.0 N | 2 SW | 216 52.4 53.0 30.9 32.1 56.9 57.5
9/3/26 - 0345 31.3 13.4 57 17.7 27.0 46.0 51.1 N | 0 SW | 215 54.4 54.6 31.1 32.1 56.9 57.5
9/3/26 - 0330 31.5 13.5 56 17.4 27.0 46.3 51.0 N | 2 SW | 217 55.1 55.0 31.4 32.1 56.9 57.5
9/3/26 - 0315 31.6 13.6 57 18.0 27.3 47.8 52.2 N | 6 SW | 217 56.3 57.5 31.5 32.1 56.9 57.5
9/3/26 - 0300 31.5 13.4 61 19.8 27.6 47.7 53.0 N | 4 SW | 218 56.9 57.0 31.5 32.1 56.9 57.5
9/3/26 - 0245 31.6 13.5 64 20.8 27.9 47.0 53.9 N | 2 SW | 217 56.6 57.5 31.5 32.1 56.6 57.5
9/3/26 - 0230 31.8 13.9 62 20.4 28.0 46.1 51.7 N | 5 SW | 218 56.2 56.6 31.5 32.1 56.2 56.6
9/3/26 - 0215 31.9 14.4 60 19.8 27.9 44.4 48.6 N | 10 SW | 219 53.5 53.2 31.5 32.1 53.5 53.2
9/3/26 - 0200 31.9 14.6 63 20.6 28.1 42.2 45.9 NNW | 333 SW | 220 51.7 51.7 31.5 32.1 51.7 51.7
9/3/26 - 0145 31.8 14.8 66 21.6 28.3 40.1 43.4 SW | 236 SW | 223 50.2 50.8 31.5 32.0 50.9 51.7
9/3/26 - 0130 31.7 14.4 70 23.0 28.6 41.3 45.1 N | 4 SW | 222 50.8 50.3 31.5 31.8 50.9 51.7
9/3/26 - 0115 31.6 14.3 73 23.9 28.9 41.7 46.9 N | 10 SW | 220 50.9 51.7 31.5 31.7 50.9 51.7
9/3/26 - 0100 31.5 14.0 77 25.0 29.1 42.5 47.9 N | 360 SW | 217 52.4 51.2 25.8 40.3 57.7 56.4
9/3/26 - 0045 31.6 14.6 78 25.4 29.3 40.2 45.5 N | 1 SW | 215 48.1 48.8 25.8 40.3 57.7 56.4
9/3/26 - 0030 31.9 15.7 76 25.1 29.4 34.6 39.7 SW | 228 SSW | 212 44.0 45.0 25.8 40.3 57.7 56.4
9/3/26 - 0015 32.1 17.2 75 25.0 29.5 28.5 33.4 SW | 232 SSW | 211 36.8 38.5 25.8 40.3 57.7 56.4
9/3/26 - 0000 32.0 18.0 75 25.0 29.5 25.2 29.3 SW | 232 SSW | 209 31.7 32.2 25.8 40.3 57.7 56.4
9/2/26 - 2345 31.9 18.3 76 25.2 29.5 23.4 26.9 SW | 231 SSW | 210 29.4 30.2 25.8 40.3 57.7 56.4
9/2/26 - 2330 31.6 18.0 80 26.3 29.6 23.4 26.6 SW | 231 SSW | 211 28.8 29.1 25.8 40.3 57.7 56.4
9/2/26 - 2315 31.6 18.1 83 27.0 29.9 22.2 25.2 SW | 231 SSW | 211 28.1 28.6 25.8 40.3 57.7 56.4
9/2/26 - 2300 31.6 18.3 84 27.4 30.0 21.8 25.2 SW | 230 SSW | 213 27.6 27.1 25.8 40.3 57.7 56.4
9/2/26 - 2245 31.5 18.1 85 27.5 29.9 22.0 25.4 SW | 230 SSW | 211 27.2 27.3 25.8 40.3 57.7 56.4
9/2/26 - 2230 31.5 18.1 85 27.4 29.9 22.1 24.8 SW | 229 SSW | 212 26.9 26.4 25.8 40.3 57.7 56.4
9/2/26 - 2215 31.3 17.9 86 27.8 29.9 21.7 23.9 SW | 228 SSW | 212 27.1 26.2 25.8 40.3 57.7 56.4
9/2/26 - 2200 31.1 17.5 88 27.9 29.9 22.5 24.4 SW | 227 SSW | 212 28.0 26.4 25.8 40.3 57.7 56.4
9/2/26 - 2145 31.3 17.4 88 28.2 30.1 23.5 25.4 SW | 226 SW | 214 29.4 27.5 25.8 40.3 57.7 56.4
9/2/26 - 2130 31.1 17.0 90 28.6 30.1 24.2 25.4 SW | 225 SW | 214 30.1 28.0 25.8 40.3 57.7 56.4
9/2/26 - 2115 31.0 16.8 94 29.4 30.3 23.5 24.5 SW | 224 SW | 216 31.2 27.3 25.8 40.3 57.7 56.4
9/2/26 - 2100 31.1 18.2 96 30.0 30.6 19.2 20.4 SW | 224 SW | 222 25.3 23.3 25.8 40.3 57.7 56.4
9/2/26 - 2045 31.0 17.7 96 30.0 30.6 20.4 21.3 SW | 225 SW | 220 27.4 25.5 25.8 40.3 57.7 56.4
9/2/26 - 2030 31.6 18.0 92 29.6 30.8 22.6 23.4 SW | 222 SW | 217 29.4 26.8 25.8 40.3 57.7 56.4
9/2/26 - 2015 31.8 17.8 90 29.4 30.8 23.6 24.2 SW | 225 SW | 221 32.2 30.9 25.8 40.3 57.7 56.4
9/2/26 - 2000 32.3 17.8 89 29.5 31.2 27.2 27.9 SW | 226 SW | 220 34.7 32.2 25.8 40.3 57.7 56.4
9/2/26 - 1945 32.8 18.2 86 29.2 31.4 28.8 29.6 SW | 226 SW | 220 36.0 34.9 25.8 40.3 57.7 56.4
9/2/26 - 1930 33.5 19.1 83 28.9 31.7 29.0 30.2 SW | 229 SW | 222 37.2 36.9 25.8 40.3 57.7 56.4
9/2/26 - 1915 34.5 20.2 77 28.1 32.0 30.1 31.1 SW | 228 SW | 223 38.3 39.8 25.8 40.3 57.7 56.4
9/2/26 - 1900 35.0 20.8 73 27.2 32.1 30.8 31.2 SW | 227 SW | 223 39.0 38.2 25.8 40.3 57.7 56.4
9/2/26 - 1845 36.1 22.3 68 26.6 32.5 30.9 31.5 SW | 227 SW | 222 39.9 38.2 25.8 40.3 57.7 56.4
9/2/26 - 1830 36.6 23.4 65 26.1 32.7 28.3 28.2 SW | 224 SW | 228 37.6 39.2 25.8 40.3 57.7 56.4
9/2/26 - 1815 36.9 23.4 64 26.0 32.8 30.8 31.1 SW | 227 SW | 222 39.2 39.2 25.8 40.3 57.7 56.4
9/2/26 - 1800 37.5 24.6 63 26.0 33.2 27.0 27.0 SW | 222 SW | 228 37.2 36.9 25.8 40.3 57.7 56.4
9/2/26 - 1745 38.1 25.5 61 25.8 33.5 27.1 26.5 SW | 231 SW | 227 37.3 37.8 25.8 40.3 57.7 56.4
9/2/26 - 1730 38.4 25.8 61 26.1 33.7 28.5 28.8 SW | 217 SW | 225 37.0 38.5 25.8 40.3 57.7 56.4
9/2/26 - 1715 38.8 26.1 59 25.5 33.8 29.2 29.3 SW | 226 SW | 226 38.8 40.5 25.8 40.3 57.7 56.4
Max 42.8 31.2 96 30.9 37.2 47.8 53.9 - - 56.9 57.5 31.5 43.1 57.7 57.5
Avg 35.0 20.4 66 24.5 31.2 33.3 35.3 - - 42.8 42.5 - - - -
Min 29.7 12.1 47 17.4 26.8 19.2 20.4 - - 25.3 23.3 25.8 31.7 50.9 51.7
Calm: 0.0%